Southlake's Hourly Summary for Saturday, May 5, 2018
Hour Temp
(f)
RH
(%)
Solar Rad.
(MJ/m2)
Rainfall
(in)
Wind
(mph)
5/5/2018 12:00 AM 60 100 0 0 0.97
5/5/2018 1:00 AM 62 99 0 0 2.01
5/5/2018 2:00 AM 60 100 0 0 1.06
5/5/2018 3:00 AM 59 100 0 0 0.84
5/5/2018 4:00 AM 58 100 0 0 0.95
5/5/2018 5:00 AM 56 100 0 0 1.51
5/5/2018 6:00 AM 56 100 0.01 0 1.9
5/5/2018 7:00 AM 57 100 0.27 0 2.01
5/5/2018 8:00 AM 64 85 1.09 0 4.59
5/5/2018 9:00 AM 69 71 1.86 0 6.15
5/5/2018 10:00 AM 72 62 2.58 0 7.43
5/5/2018 11:00 AM 75 51 3.08 0 8
5/5/2018 12:00 PM 78 41 3.46 0 7.61
5/5/2018 1:00 PM 79 38 3.61 0 7.83
5/5/2018 2:00 PM 80 34 3.55 0 7.61
5/5/2018 3:00 PM 81 31 3.21 0 6.88
5/5/2018 4:00 PM 81 30 2.64 0 6.26
5/5/2018 5:00 PM 81 29 1.96 0 5.98
5/5/2018 6:00 PM 80 29 1.19 0 4.7
5/5/2018 7:00 PM 78 35 0.41 0 2.4
5/5/2018 8:00 PM 70 61 0.02 0 1.68
5/5/2018 9:00 PM 64 79 0 0 1.23
5/5/2018 10:00 PM 61 86 0 0 1.4
5/5/2018 11:00 PM 59 90 0 0 1.23
Data Summary 68 68 28.94 0.00 3.84